sensor_id;sensor_type;location;lat;lon;timestamp;pressure;altitude;pressure_sealevel;temperature;humidity
49949;BME280;35840;45.982;8.890;2024-02-21T00:00:26;99230.13;;;9.09;41.43
49949;BME280;35840;45.982;8.890;2024-02-21T00:02:53;99229.16;;;9.12;42.01
49949;BME280;35840;45.982;8.890;2024-02-21T00:05:22;99189.63;;;8.95;42.19
49949;BME280;35840;45.982;8.890;2024-02-21T00:07:49;99233.28;;;9.16;42.47
49949;BME280;35840;45.982;8.890;2024-02-21T00:10:16;99223.22;;;9.11;42.36
49949;BME280;35840;45.982;8.890;2024-02-21T00:12:43;99225.41;;;8.99;42.76
49949;BME280;35840;45.982;8.890;2024-02-21T00:15:09;99212.63;;;8.97;42.84
49949;BME280;35840;45.982;8.890;2024-02-21T00:17:36;99215.94;;;9.01;42.75
49949;BME280;35840;45.982;8.890;2024-02-21T00:20:03;99212.28;;;9.06;42.50
49949;BME280;35840;45.982;8.890;2024-02-21T00:22:31;99208.31;;;8.99;43.04
49949;BME280;35840;45.982;8.890;2024-02-21T00:25:00;99215.78;;;8.83;43.01
49949;BME280;35840;45.982;8.890;2024-02-21T00:27:27;99221.19;;;8.75;43.11
49949;BME280;35840;45.982;8.890;2024-02-21T00:29:54;99226.97;;;8.81;43.07
49949;BME280;35840;45.982;8.890;2024-02-21T00:32:21;99216.06;;;8.75;42.80
49949;BME280;35840;45.982;8.890;2024-02-21T00:34:47;99234.00;;;8.75;43.51
49949;BME280;35840;45.982;8.890;2024-02-21T00:37:14;99234.72;;;8.57;43.88
49949;BME280;35840;45.982;8.890;2024-02-21T00:39:41;99230.63;;;8.05;44.50
49949;BME280;35840;45.982;8.890;2024-02-21T00:42:09;99236.00;;;8.21;45.03
49949;BME280;35840;45.982;8.890;2024-02-21T00:44:35;99227.31;;;8.25;44.92
49949;BME280;35840;45.982;8.890;2024-02-21T00:47:02;99232.88;;;8.37;44.50
49949;BME280;35840;45.982;8.890;2024-02-21T00:49:29;99223.34;;;8.40;44.82
49949;BME280;35840;45.982;8.890;2024-02-21T00:51:56;99223.34;;;8.40;44.97
49949;BME280;35840;45.982;8.890;2024-02-21T00:54:23;99236.66;;;8.50;43.65
49949;BME280;35840;45.982;8.890;2024-02-21T00:56:50;99225.84;;;8.42;43.87
49949;BME280;35840;45.982;8.890;2024-02-21T00:59:16;99230.50;;;8.32;44.20
49949;BME280;35840;45.982;8.890;2024-02-21T01:01:43;99233.81;;;8.34;43.97
49949;BME280;35840;45.982;8.890;2024-02-21T01:04:10;99236.69;;;8.26;44.41
49949;BME280;35840;45.982;8.890;2024-02-21T01:06:37;99244.38;;;8.26;44.54
49949;BME280;35840;45.982;8.890;2024-02-21T01:09:04;99243.44;;;8.27;44.13
49949;BME280;35840;45.982;8.890;2024-02-21T01:11:31;99234.06;;;8.28;44.20
49949;BME280;35840;45.982;8.890;2024-02-21T01:13:58;99242.56;;;8.05;45.17
49949;BME280;35840;45.982;8.890;2024-02-21T01:16:25;99241.63;;;8.07;44.61
49949;BME280;35840;45.982;8.890;2024-02-21T01:18:52;99244.41;;;8.01;45.40
49949;BME280;35840;45.982;8.890;2024-02-21T01:21:19;99235.78;;;8.04;45.12
49949;BME280;35840;45.982;8.890;2024-02-21T01:23:46;99225.56;;;8.02;45.16
49949;BME280;35840;45.982;8.890;2024-02-21T01:26:12;99230.50;;;8.08;45.27
49949;BME280;35840;45.982;8.890;2024-02-21T01:28:41;99227.91;;;7.85;46.28
49949;BME280;35840;45.982;8.890;2024-02-21T01:31:09;99228.53;;;7.91;45.72
49949;BME280;35840;45.982;8.890;2024-02-21T01:33:35;99219.81;;;7.97;45.69
49949;BME280;35840;45.982;8.890;2024-02-21T01:36:02;99218.69;;;8.04;46.05
49949;BME280;35840;45.982;8.890;2024-02-21T01:38:30;99217.81;;;8.05;45.89
49949;BME280;35840;45.982;8.890;2024-02-21T01:40:58;99214.22;;;7.86;45.89
49949;BME280;35840;45.982;8.890;2024-02-21T01:43:25;99218.59;;;7.82;46.31
49949;BME280;35840;45.982;8.890;2024-02-21T01:45:54;99219.41;;;7.84;45.77
49949;BME280;35840;45.982;8.890;2024-02-21T01:48:22;99210.38;;;7.74;46.68
49949;BME280;35840;45.982;8.890;2024-02-21T01:50:50;99211.78;;;7.83;46.67
49949;BME280;35840;45.982;8.890;2024-02-21T01:53:23;99216.06;;;7.82;47.10
49949;BME280;35840;45.982;8.890;2024-02-21T01:55:52;99217.84;;;7.80;47.42
49949;BME280;35840;45.982;8.890;2024-02-21T01:58:20;99211.56;;;7.64;47.00
49949;BME280;35840;45.982;8.890;2024-02-21T02:00:48;99221.47;;;7.49;47.70
49949;BME280;35840;45.982;8.890;2024-02-21T02:03:15;99222.28;;;7.50;47.43
49949;BME280;35840;45.982;8.890;2024-02-21T02:08:13;99215.50;;;7.49;47.91
49949;BME280;35840;45.982;8.890;2024-02-21T02:10:41;99222.19;;;7.53;47.90
49949;BME280;35840;45.982;8.890;2024-02-21T02:13:08;99223.03;;;7.53;48.18
49949;BME280;35840;45.982;8.890;2024-02-21T02:15:42;99230.75;;;7.52;47.95
49949;BME280;35840;45.982;8.890;2024-02-21T02:18:10;99237.38;;;7.57;48.01
49949;BME280;35840;45.982;8.890;2024-02-21T02:20:38;99235.75;;;7.55;47.69
49949;BME280;35840;45.982;8.890;2024-02-21T02:23:38;99241.03;;;7.50;47.51
49949;BME280;35840;45.982;8.890;2024-02-21T02:25:59;99242.44;;;7.34;47.57
49949;BME280;35840;45.982;8.890;2024-02-21T02:28:27;99241.59;;;7.33;47.57
49949;BME280;35840;45.982;8.890;2024-02-21T02:31:30;99240.69;;;7.36;47.53
49949;BME280;35840;45.982;8.890;2024-02-21T02:34:33;99249.72;;;7.19;48.07
49949;BME280;35840;45.982;8.890;2024-02-21T02:37:50;99245.31;;;7.24;48.09
49949;BME280;35840;45.982;8.890;2024-02-21T02:44:40;99246.78;;;7.05;47.93
49949;BME280;35840;45.982;8.890;2024-02-21T02:51:51;99237.09;;;7.15;48.18
49949;BME280;35840;45.982;8.890;2024-02-21T02:54:54;99229.22;;;7.21;48.26
49949;BME280;35840;45.982;8.890;2024-02-21T03:04:50;99212.78;;;7.01;48.80
49949;BME280;35840;45.982;8.890;2024-02-21T03:07:17;99204.19;;;7.04;49.03
49949;BME280;35840;45.982;8.890;2024-02-21T03:09:44;99212.59;;;7.07;48.66
49949;BME280;35840;45.982;8.890;2024-02-21T03:12:11;99200.59;;;7.10;49.04
49949;BME280;35840;45.982;8.890;2024-02-21T03:14:38;99202.44;;;7.04;49.26
49949;BME280;35840;45.982;8.890;2024-02-21T03:17:04;99200.00;;;7.01;48.96
49949;BME280;35840;45.982;8.890;2024-02-21T03:19:31;99199.41;;;6.93;49.72
49949;BME280;35840;45.982;8.890;2024-02-21T03:21:58;99206.50;;;6.85;49.55
49949;BME280;35840;45.982;8.890;2024-02-21T03:24:25;99204.06;;;6.80;49.77
49949;BME280;35840;45.982;8.890;2024-02-21T03:26:52;99199.44;;;6.65;50.10
49949;BME280;35840;45.982;8.890;2024-02-21T03:29:19;99200.19;;;6.68;49.83
49949;BME280;35840;45.982;8.890;2024-02-21T03:31:46;99216.50;;;6.64;50.08
49949;BME280;35840;45.982;8.890;2024-02-21T03:34:12;99213.84;;;6.67;49.68
49949;BME280;35840;45.982;8.890;2024-02-21T03:36:40;99213.25;;;6.59;50.15
49949;BME280;35840;45.982;8.890;2024-02-21T03:39:06;99216.44;;;6.66;49.79
49949;BME280;35840;45.982;8.890;2024-02-21T03:41:35;99231.00;;;6.64;50.32
49949;BME280;35840;45.982;8.890;2024-02-21T03:44:02;99222.63;;;6.59;50.38
49949;BME280;35840;45.982;8.890;2024-02-21T03:46:30;99236.25;;;6.59;50.67
49949;BME280;35840;45.982;8.890;2024-02-21T03:48:57;99237.28;;;6.52;50.48
49949;BME280;35840;45.982;8.890;2024-02-21T03:51:24;99248.38;;;6.52;50.02
49949;BME280;35840;45.982;8.890;2024-02-21T03:53:51;99242.25;;;6.58;50.45
49949;BME280;35840;45.982;8.890;2024-02-21T03:56:18;99231.66;;;6.41;50.47
49949;BME280;35840;45.982;8.890;2024-02-21T03:58:44;99233.34;;;6.42;50.74
49949;BME280;35840;45.982;8.890;2024-02-21T04:01:11;99236.75;;;6.42;50.82
49949;BME280;35840;45.982;8.890;2024-02-21T04:03:39;99235.16;;;6.38;50.78
49949;BME280;35840;45.982;8.890;2024-02-21T04:06:06;99237.00;;;6.33;51.12
49949;BME280;35840;45.982;8.890;2024-02-21T04:08:32;99235.59;;;6.23;51.71
49949;BME280;35840;45.982;8.890;2024-02-21T04:10:59;99229.94;;;6.13;51.90
49949;BME280;35840;45.982;8.890;2024-02-21T04:13:26;99240.72;;;6.23;51.22
49949;BME280;35840;45.982;8.890;2024-02-21T04:15:53;99249.34;;;6.18;51.73
49949;BME280;35840;45.982;8.890;2024-02-21T04:18:20;99248.47;;;6.18;52.22
49949;BME280;35840;45.982;8.890;2024-02-21T04:20:47;99254.41;;;6.20;52.10
49949;BME280;35840;45.982;8.890;2024-02-21T04:23:14;99238.94;;;6.25;51.98
49949;BME280;35840;45.982;8.890;2024-02-21T04:25:40;99230.56;;;6.21;52.15
49949;BME280;35840;45.982;8.890;2024-02-21T04:28:07;99230.84;;;6.10;52.33
49949;BME280;35840;45.982;8.890;2024-02-21T04:30:34;99233.25;;;6.15;51.80
49949;BME280;35840;45.982;8.890;2024-02-21T04:33:02;99226.50;;;6.14;51.75
49949;BME280;35840;45.982;8.890;2024-02-21T04:35:29;99229.84;;;6.16;51.55
49949;BME280;35840;45.982;8.890;2024-02-21T04:37:56;99229.78;;;6.17;51.31
49949;BME280;35840;45.982;8.890;2024-02-21T04:40:23;99232.50;;;5.80;52.35
49949;BME280;35840;45.982;8.890;2024-02-21T04:42:49;99237.47;;;5.84;52.32
49949;BME280;35840;45.982;8.890;2024-02-21T04:45:16;99233.19;;;5.85;52.54
49949;BME280;35840;45.982;8.890;2024-02-21T04:47:44;99237.16;;;5.97;52.30
49949;BME280;35840;45.982;8.890;2024-02-21T04:50:11;99236.19;;;6.02;52.17
49949;BME280;35840;45.982;8.890;2024-02-21T04:52:38;99237.13;;;5.98;52.21
49949;BME280;35840;45.982;8.890;2024-02-21T04:55:05;99230.38;;;5.96;51.99
49949;BME280;35840;45.982;8.890;2024-02-21T04:57:32;99240.28;;;6.07;51.78
49949;BME280;35840;45.982;8.890;2024-02-21T04:59:59;99239.38;;;6.09;52.31
49949;BME280;35840;45.982;8.890;2024-02-21T05:02:26;99230.88;;;6.09;52.40
49949;BME280;35840;45.982;8.890;2024-02-21T05:04:53;99237.03;;;6.01;52.50
49949;BME280;35840;45.982;8.890;2024-02-21T05:07:20;99237.16;;;5.95;52.47
49949;BME280;35840;45.982;8.890;2024-02-21T05:09:47;99238.94;;;5.93;52.24
49949;BME280;35840;45.982;8.890;2024-02-21T05:12:14;99248.31;;;5.93;52.50
49949;BME280;35840;45.982;8.890;2024-02-21T05:14:41;99241.53;;;5.92;52.38
49949;BME280;35840;45.982;8.890;2024-02-21T05:17:08;99245.16;;;5.83;52.31
49949;BME280;35840;45.982;8.890;2024-02-21T05:19:35;99256.34;;;5.79;52.90
49949;BME280;35840;45.982;8.890;2024-02-21T05:22:02;99262.53;;;5.70;53.68
49949;BME280;35840;45.982;8.890;2024-02-21T05:24:28;99254.31;;;5.59;54.83
49949;BME280;35840;45.982;8.890;2024-02-21T05:26:56;99252.41;;;5.65;54.05
49949;BME280;35840;45.982;8.890;2024-02-21T05:29:23;99260.91;;;5.66;53.57
49949;BME280;35840;45.982;8.890;2024-02-21T05:34:20;99246.16;;;5.77;53.21
49949;BME280;35840;45.982;8.890;2024-02-21T05:36:47;99247.94;;;5.74;53.46
49949;BME280;35840;45.982;8.890;2024-02-21T05:39:16;99249.06;;;5.63;53.67
49949;BME280;35840;45.982;8.890;2024-02-21T05:41:44;99248.25;;;5.61;53.68
49949;BME280;35840;45.982;8.890;2024-02-21T05:44:11;99228.00;;;5.57;53.29
49949;BME280;35840;45.982;8.890;2024-02-21T05:46:38;99249.63;;;5.75;53.00
49949;BME280;35840;45.982;8.890;2024-02-21T05:49:05;99241.13;;;5.76;53.16
49949;BME280;35840;45.982;8.890;2024-02-21T05:51:34;99248.81;;;5.73;53.75
49949;BME280;35840;45.982;8.890;2024-02-21T05:54:01;99243.84;;;5.68;53.57
49949;BME280;35840;45.982;8.890;2024-02-21T05:56:28;99235.19;;;5.74;53.45
49949;BME280;35840;45.982;8.890;2024-02-21T05:58:55;99230.94;;;5.74;53.66
49949;BME280;35840;45.982;8.890;2024-02-21T06:01:21;99230.09;;;5.74;54.30
49949;BME280;35840;45.982;8.890;2024-02-21T06:03:48;99233.41;;;5.77;53.93
49949;BME280;35840;45.982;8.890;2024-02-21T06:06:15;99229.97;;;5.78;54.59
49949;BME280;35840;45.982;8.890;2024-02-21T06:08:42;99232.56;;;5.77;54.90
49949;BME280;35840;45.982;8.890;2024-02-21T06:11:09;99220.66;;;5.77;54.83
49949;BME280;35840;45.982;8.890;2024-02-21T06:13:38;99215.50;;;5.79;54.70
49949;BME280;35840;45.982;8.890;2024-02-21T06:16:06;99225.81;;;5.76;54.95
49949;BME280;35840;45.982;8.890;2024-02-21T06:18:36;99233.66;;;5.68;55.71
49949;BME280;35840;45.982;8.890;2024-02-21T06:21:04;99240.13;;;5.47;56.40
49949;BME280;35840;45.982;8.890;2024-02-21T06:23:31;99246.69;;;5.57;55.96
49949;BME280;35840;45.982;8.890;2024-02-21T06:25:58;99242.38;;;5.59;56.13
49949;BME280;35840;45.982;8.890;2024-02-21T06:28:25;99239.81;;;5.59;55.47
49949;BME280;35840;45.982;8.890;2024-02-21T06:30:52;99248.25;;;5.61;56.31
49949;BME280;35840;45.982;8.890;2024-02-21T06:33:18;99242.34;;;5.61;56.59
49949;BME280;35840;45.982;8.890;2024-02-21T06:35:49;99244.03;;;5.62;57.39
49949;BME280;35840;45.982;8.890;2024-02-21T06:38:19;99244.50;;;5.76;56.62
49949;BME280;35840;45.982;8.890;2024-02-21T06:40:46;99257.28;;;5.75;57.00
49949;BME280;35840;45.982;8.890;2024-02-21T06:43:18;99249.69;;;5.73;56.52
49949;BME280;35840;45.982;8.890;2024-02-21T06:45:46;99260.72;;;5.74;56.51
49949;BME280;35840;45.982;8.890;2024-02-21T06:48:17;99269.09;;;5.79;56.88
49949;BME280;35840;45.982;8.890;2024-02-21T06:50:45;99275.72;;;5.86;56.32
49949;BME280;35840;45.982;8.890;2024-02-21T06:53:12;99274.78;;;5.89;57.21
49949;BME280;35840;45.982;8.890;2024-02-21T06:55:39;99280.78;;;5.88;57.62
49949;BME280;35840;45.982;8.890;2024-02-21T06:58:06;99267.78;;;5.95;57.23
49949;BME280;35840;45.982;8.890;2024-02-21T07:00:35;99276.97;;;6.04;56.92
49949;BME280;35840;45.982;8.890;2024-02-21T07:03:02;99275.84;;;6.14;56.68
49949;BME280;35840;45.982;8.890;2024-02-21T07:05:29;99279.03;;;6.23;56.42
49949;BME280;35840;45.982;8.890;2024-02-21T07:07:56;99280.47;;;6.31;56.95
49949;BME280;35840;45.982;8.890;2024-02-21T07:10:23;99277.63;;;6.41;56.64
49949;BME280;35840;45.982;8.890;2024-02-21T07:12:50;99283.66;;;6.40;57.08
49949;BME280;35840;45.982;8.890;2024-02-21T07:15:18;99293.09;;;6.36;57.86
49949;BME280;35840;45.982;8.890;2024-02-21T07:17:45;99302.59;;;6.32;58.49
49949;BME280;35840;45.982;8.890;2024-02-21T07:20:12;99303.31;;;6.36;57.81
49949;BME280;35840;45.982;8.890;2024-02-21T07:22:39;99305.78;;;6.39;57.80
49949;BME280;35840;45.982;8.890;2024-02-21T07:25:06;99312.47;;;6.43;57.88
49949;BME280;35840;45.982;8.890;2024-02-21T07:27:33;99310.56;;;6.51;57.48
49949;BME280;35840;45.982;8.890;2024-02-21T07:30:00;99312.13;;;6.55;57.54
49949;BME280;35840;45.982;8.890;2024-02-21T07:32:27;99309.41;;;6.62;57.23
49949;BME280;35840;45.982;8.890;2024-02-21T07:34:54;99316.97;;;6.66;56.44
49949;BME280;35840;45.982;8.890;2024-02-21T07:37:21;99314.16;;;6.74;55.88
49949;BME280;35840;45.982;8.890;2024-02-21T07:39:48;99319.13;;;6.79;55.36
49949;BME280;35840;45.982;8.890;2024-02-21T07:42:14;99320.72;;;6.83;55.16
49949;BME280;35840;45.982;8.890;2024-02-21T07:44:42;99323.28;;;6.83;55.21
49949;BME280;35840;45.982;8.890;2024-02-21T07:47:09;99320.91;;;6.77;55.33
49949;BME280;35840;45.982;8.890;2024-02-21T07:49:45;99328.22;;;6.89;54.80
49949;BME280;35840;45.982;8.890;2024-02-21T07:52:15;99315.09;;;7.00;56.02
49949;BME280;35840;45.982;8.890;2024-02-21T07:54:42;99316.84;;;6.99;56.11
49949;BME280;35840;45.982;8.890;2024-02-21T07:57:09;99307.47;;;6.98;56.46
49949;BME280;35840;45.982;8.890;2024-02-21T07:59:36;99318.47;;;7.02;55.79
49949;BME280;35840;45.982;8.890;2024-02-21T08:02:03;99300.63;;;6.99;54.99
49949;BME280;35840;45.982;8.890;2024-02-21T08:04:33;99305.38;;;7.11;53.97
49949;BME280;35840;45.982;8.890;2024-02-21T08:07:00;99300.16;;;7.14;53.90
49949;BME280;35840;45.982;8.890;2024-02-21T08:09:29;99295.66;;;7.22;52.95
49949;BME280;35840;45.982;8.890;2024-02-21T08:11:56;99292.38;;;7.19;52.31
49949;BME280;35840;45.982;8.890;2024-02-21T08:14:23;99288.13;;;7.18;50.60
49949;BME280;35840;45.982;8.890;2024-02-21T08:16:51;99283.16;;;7.13;50.02
49949;BME280;35840;45.982;8.890;2024-02-21T08:19:20;99288.09;;;7.19;49.40
49949;BME280;35840;45.982;8.890;2024-02-21T08:21:47;99279.38;;;7.25;49.13
49949;BME280;35840;45.982;8.890;2024-02-21T08:24:14;99287.81;;;7.29;49.45
49949;BME280;35840;45.982;8.890;2024-02-21T08:26:42;99286.78;;;7.34;47.93
49949;BME280;35840;45.982;8.890;2024-02-21T08:29:09;99282.47;;;7.35;48.01
49949;BME280;35840;45.982;8.890;2024-02-21T08:31:36;99287.94;;;7.51;47.08
49949;BME280;35840;45.982;8.890;2024-02-21T08:34:03;99278.44;;;7.54;47.55
49949;BME280;35840;45.982;8.890;2024-02-21T08:36:31;99287.41;;;7.66;47.23
49949;BME280;35840;45.982;8.890;2024-02-21T08:38:59;99288.94;;;7.72;47.97
49949;BME280;35840;45.982;8.890;2024-02-21T08:41:26;99288.94;;;7.72;47.13
49949;BME280;35840;45.982;8.890;2024-02-21T08:44:13;99286.91;;;7.82;46.36
49949;BME280;35840;45.982;8.890;2024-02-21T08:46:40;99285.22;;;7.81;45.65
49949;BME280;35840;45.982;8.890;2024-02-21T08:49:07;99266.47;;;7.80;45.51
49949;BME280;35840;45.982;8.890;2024-02-21T08:51:34;99274.78;;;7.87;45.86
49949;BME280;35840;45.982;8.890;2024-02-21T08:54:02;99275.34;;;7.95;46.26
49949;BME280;35840;45.982;8.890;2024-02-21T08:56:30;99269.28;;;7.98;46.07
49949;BME280;35840;45.982;8.890;2024-02-21T08:58:57;99274.34;;;7.99;46.70
49949;BME280;35840;45.982;8.890;2024-02-21T09:01:26;99272.59;;;8.01;46.61
49949;BME280;35840;45.982;8.890;2024-02-21T09:03:53;99267.47;;;8.01;46.80
49949;BME280;35840;45.982;8.890;2024-02-21T09:06:21;99274.50;;;8.20;47.74
49949;BME280;35840;45.982;8.890;2024-02-21T09:08:48;99265.91;;;8.21;47.06
49949;BME280;35840;45.982;8.890;2024-02-21T09:11:15;99268.47;;;8.21;47.25
49949;BME280;35840;45.982;8.890;2024-02-21T09:13:42;99273.44;;;8.25;47.98
49949;BME280;35840;45.982;8.890;2024-02-21T09:16:09;99264.75;;;8.30;47.57
49949;BME280;35840;45.982;8.890;2024-02-21T09:18:36;99272.25;;;8.34;46.77
49949;BME280;35840;45.982;8.890;2024-02-21T09:21:03;99273.81;;;8.38;46.15
49949;BME280;35840;45.982;8.890;2024-02-21T09:23:30;99260.53;;;8.52;47.04
49949;BME280;35840;45.982;8.890;2024-02-21T09:25:58;99254.50;;;8.53;46.50
49949;BME280;35840;45.982;8.890;2024-02-21T09:28:27;99263.59;;;8.62;46.47
49949;BME280;35840;45.982;8.890;2024-02-21T09:30:54;99264.91;;;8.72;46.14
49949;BME280;35840;45.982;8.890;2024-02-21T09:33:21;99261.53;;;8.70;45.85
49949;BME280;35840;45.982;8.890;2024-02-21T09:35:58;99260.06;;;8.87;46.64
49949;BME280;35840;45.982;8.890;2024-02-21T09:38:25;99262.44;;;8.91;46.97
49949;BME280;35840;45.982;8.890;2024-02-21T09:41:04;99256.06;;;9.02;47.13
49949;BME280;35840;45.982;8.890;2024-02-21T09:43:36;99259.22;;;9.08;44.81
49949;BME280;35840;45.982;8.890;2024-02-21T09:46:04;99261.28;;;9.00;44.25
49949;BME280;35840;45.982;8.890;2024-02-21T09:48:41;99269.06;;;8.97;42.94
49949;BME280;35840;45.982;8.890;2024-02-21T09:51:10;99264.94;;;8.93;42.55
49949;BME280;35840;45.982;8.890;2024-02-21T09:53:37;99257.66;;;9.04;43.99
49949;BME280;35840;45.982;8.890;2024-02-21T09:56:07;99257.31;;;9.13;41.82
49949;BME280;35840;45.982;8.890;2024-02-21T09:58:38;99266.22;;;9.25;42.02
49949;BME280;35840;45.982;8.890;2024-02-21T10:01:04;99260.16;;;9.28;40.35
49949;BME280;35840;45.982;8.890;2024-02-21T10:03:51;99249.13;;;9.26;40.23
49949;BME280;35840;45.982;8.890;2024-02-21T10:06:17;99263.91;;;9.41;41.60
49949;BME280;35840;45.982;8.890;2024-02-21T10:08:52;99255.75;;;9.32;42.21
49949;BME280;35840;45.982;8.890;2024-02-21T10:11:25;99254.53;;;9.40;42.66
49949;BME280;35840;45.982;8.890;2024-02-21T10:14:03;99256.75;;;9.48;42.76
49949;BME280;35840;45.982;8.890;2024-02-21T10:16:32;99248.09;;;9.51;41.24
49949;BME280;35840;45.982;8.890;2024-02-21T10:19:00;99250.31;;;9.60;41.78
49949;BME280;35840;45.982;8.890;2024-02-21T10:21:27;99248.13;;;9.71;40.72
49949;BME280;35840;45.982;8.890;2024-02-21T10:23:54;99239.09;;;9.81;40.62
49949;BME280;35840;45.982;8.890;2024-02-21T10:26:22;99244.75;;;9.90;41.12
49949;BME280;35840;45.982;8.890;2024-02-21T10:28:49;99244.31;;;9.80;40.18
49949;BME280;35840;45.982;8.890;2024-02-21T10:31:23;99239.09;;;9.81;41.42
49949;BME280;35840;45.982;8.890;2024-02-21T10:33:58;99233.69;;;9.88;39.99
49949;BME280;35840;45.982;8.890;2024-02-21T10:36:26;99243.00;;;9.90;42.12
49949;BME280;35840;45.982;8.890;2024-02-21T10:38:53;99221.13;;;9.81;41.09
49949;BME280;35840;45.982;8.890;2024-02-21T10:41:22;99227.88;;;9.84;40.90
49949;BME280;35840;45.982;8.890;2024-02-21T10:43:51;99225.09;;;9.89;40.72
49949;BME280;35840;45.982;8.890;2024-02-21T10:46:23;99215.25;;;9.98;42.58
49949;BME280;35840;45.982;8.890;2024-02-21T10:49:17;99212.16;;;10.11;40.61
49949;BME280;35840;45.982;8.890;2024-02-21T10:51:47;99207.44;;;10.21;41.66
49949;BME280;35840;45.982;8.890;2024-02-21T10:54:36;99200.53;;;10.21;41.11
49949;BME280;35840;45.982;8.890;2024-02-21T10:57:06;99202.63;;;10.51;43.89
49949;BME280;35840;45.982;8.890;2024-02-21T10:59:34;99201.53;;;10.57;43.98
49949;BME280;35840;45.982;8.890;2024-02-21T11:02:01;99203.34;;;10.55;42.97
49949;BME280;35840;45.982;8.890;2024-02-21T11:04:30;99201.53;;;10.74;44.82
49949;BME280;35840;45.982;8.890;2024-02-21T11:07:00;99181.38;;;10.84;44.12
49949;BME280;35840;45.982;8.890;2024-02-21T11:09:31;99183.72;;;10.89;43.68
49949;BME280;35840;45.982;8.890;2024-02-21T11:12:05;99178.41;;;10.74;43.05
49949;BME280;35840;45.982;8.890;2024-02-21T11:14:33;99179.50;;;10.88;42.82
49949;BME280;35840;45.982;8.890;2024-02-21T11:17:14;99168.25;;;10.71;42.10
49949;BME280;35840;45.982;8.890;2024-02-21T11:19:42;99168.41;;;10.68;42.88
49949;BME280;35840;45.982;8.890;2024-02-21T11:22:17;99163.13;;;10.71;43.06
49949;BME280;35840;45.982;8.890;2024-02-21T11:24:45;99158.84;;;10.89;44.30
49949;BME280;35840;45.982;8.890;2024-02-21T11:27:16;99151.78;;;10.93;43.74
49949;BME280;35840;45.982;8.890;2024-02-21T11:29:47;99147.72;;;11.06;43.85
49949;BME280;35840;45.982;8.890;2024-02-21T11:32:19;99137.84;;;11.32;44.76
49949;BME280;35840;45.982;8.890;2024-02-21T11:35:00;99131.47;;;11.39;46.43
49949;BME280;35840;45.982;8.890;2024-02-21T11:37:35;99124.91;;;11.49;47.02
49949;BME280;35840;45.982;8.890;2024-02-21T11:40:05;99113.34;;;11.90;45.79
49949;BME280;35840;45.982;8.890;2024-02-21T11:42:36;99112.66;;;12.04;44.85
49949;BME280;35840;45.982;8.890;2024-02-21T11:45:03;99108.06;;;12.25;44.89
49949;BME280;35840;45.982;8.890;2024-02-21T11:47:30;99094.25;;;12.26;43.82
49949;BME280;35840;45.982;8.890;2024-02-21T11:49:57;99082.28;;;12.25;44.19
49949;BME280;35840;45.982;8.890;2024-02-21T11:52:25;99086.28;;;12.31;43.81
49949;BME280;35840;45.982;8.890;2024-02-21T11:54:54;99081.66;;;12.36;44.17
49949;BME280;35840;45.982;8.890;2024-02-21T11:57:23;99074.97;;;12.33;44.92
49949;BME280;35840;45.982;8.890;2024-02-21T11:59:51;99073.78;;;12.39;43.74
49949;BME280;35840;45.982;8.890;2024-02-21T12:02:26;99067.50;;;12.43;43.59
49949;BME280;35840;45.982;8.890;2024-02-21T12:04:53;99068.28;;;12.45;45.40
49949;BME280;35840;45.982;8.890;2024-02-21T12:07:21;99063.41;;;12.55;45.01
49949;BME280;35840;45.982;8.890;2024-02-21T12:09:50;99062.31;;;12.59;45.97
49949;BME280;35840;45.982;8.890;2024-02-21T12:12:20;99057.50;;;12.53;45.50
49949;BME280;35840;45.982;8.890;2024-02-21T12:14:55;99051.81;;;12.62;44.18
49949;BME280;35840;45.982;8.890;2024-02-21T12:17:22;99044.72;;;12.66;46.13
49949;BME280;35840;45.982;8.890;2024-02-21T12:19:50;99040.91;;;12.73;45.00
49949;BME280;35840;45.982;8.890;2024-02-21T12:22:18;99039.13;;;12.73;46.42
49949;BME280;35840;45.982;8.890;2024-02-21T12:24:46;99028.44;;;12.80;44.95
49949;BME280;35840;45.982;8.890;2024-02-21T12:27:14;99036.38;;;12.77;45.66
49949;BME280;35840;45.982;8.890;2024-02-21T12:29:41;99033.50;;;12.81;45.31
49949;BME280;35840;45.982;8.890;2024-02-21T12:32:09;99021.00;;;12.89;45.98
49949;BME280;35840;45.982;8.890;2024-02-21T12:34:37;99024.56;;;12.87;43.88
49949;BME280;35840;45.982;8.890;2024-02-21T12:37:19;99028.00;;;12.87;45.40
49949;BME280;35840;45.982;8.890;2024-02-21T12:39:48;99016.94;;;13.00;45.62
49949;BME280;35840;45.982;8.890;2024-02-21T12:42:15;99015.19;;;13.00;46.26
49949;BME280;35840;45.982;8.890;2024-02-21T12:44:41;99002.47;;;12.97;44.33
49949;BME280;35840;45.982;8.890;2024-02-21T12:47:09;99001.47;;;13.14;47.42
49949;BME280;35840;45.982;8.890;2024-02-21T12:49:37;99006.06;;;13.23;46.62
49949;BME280;35840;45.982;8.890;2024-02-21T12:52:09;98996.09;;;13.32;46.39
49949;BME280;35840;45.982;8.890;2024-02-21T12:54:36;98996.47;;;13.25;46.45
49949;BME280;35840;45.982;8.890;2024-02-21T12:57:03;98996.81;;;13.34;44.21
49949;BME280;35840;45.982;8.890;2024-02-21T12:59:30;98988.34;;;13.32;43.84
49949;BME280;35840;45.982;8.890;2024-02-21T13:01:57;98981.91;;;13.24;43.80
49949;BME280;35840;45.982;8.890;2024-02-21T13:04:24;98987.97;;;13.23;45.29
49949;BME280;35840;45.982;8.890;2024-02-21T13:06:51;98973.16;;;13.13;44.08
49949;BME280;35840;45.982;8.890;2024-02-21T13:09:18;98970.28;;;13.17;46.28
49949;BME280;35840;45.982;8.890;2024-02-21T13:11:45;98967.72;;;13.17;47.69
49949;BME280;35840;45.982;8.890;2024-02-21T13:14:12;98958.31;;;13.16;47.64
49949;BME280;35840;45.982;8.890;2024-02-21T13:16:40;98953.63;;;13.08;49.03
49949;BME280;35840;45.982;8.890;2024-02-21T13:19:07;98941.72;;;13.06;47.69
49949;BME280;35840;45.982;8.890;2024-02-21T13:21:37;98948.06;;;13.15;47.24
49949;BME280;35840;45.982;8.890;2024-02-21T13:24:04;98941.34;;;13.12;46.67
49949;BME280;35840;45.982;8.890;2024-02-21T13:26:31;98932.69;;;13.13;47.03
49949;BME280;35840;45.982;8.890;2024-02-21T13:28:57;98935.25;;;13.13;48.80
49949;BME280;35840;45.982;8.890;2024-02-21T13:31:24;98934.34;;;13.14;46.95
49949;BME280;35840;45.982;8.890;2024-02-21T13:33:52;98922.81;;;13.05;48.03
49949;BME280;35840;45.982;8.890;2024-02-21T13:36:20;98924.66;;;13.18;46.29